Time;durP1;ratioP1;P1;durP2;ratioP2;P2;SDS_P1;SDS_P2;PMS_P1;PMS_P2;Temp;Humidity;BMP_temperature;BMP_pressure;BME280_temperature;BME280_humidity;BME280_pressure;Samples;Min_cycle;Max_cycle;Signal;HPM_P1;HPM_P2
2021/03/23 00:01:00;;;;;;;13.17;7.73;;;6.60;70.50;;;;;;4938647;29;20287;-90
2021/03/23 00:03:32;;;;;;;11.53;7.53;;;6.60;69.80;;;;;;4919130;29;20241;-90
2021/03/23 00:06:10;;;;;;;14.03;7.07;;;6.60;70.60;;;;;;4945535;29;20183;-91
2021/03/23 00:08:49;;;;;;;11.27;6.83;;;6.60;69.70;;;;;;4881628;29;20211;-90
2021/03/23 00:11:45;;;;;;;18.43;9.27;;;6.60;69.80;;;;;;4923778;29;20313;-90
2021/03/23 00:14:14;;;;;;;16.90;7.83;;;;;;;;;;4939722;29;20773;-91
2021/03/23 00:16:57;;;;;;;15.30;9.53;;;6.70;69.60;;;;;;4940218;29;20203;-90
2021/03/23 00:19:29;;;;;;;13.00;7.53;;;;;;;;;;4926206;29;20190;-90
2021/03/23 00:22:05;;;;;;;15.80;7.77;;;6.70;69.60;;;;;;4926936;29;20200;-91
2021/03/23 00:24:41;;;;;;;14.87;7.87;;;6.60;70.10;;;;;;4922268;28;20197;-90
2021/03/23 00:27:10;;;;;;;15.67;8.23;;;6.60;70.70;;;;;;4947528;29;20198;-90
2021/03/23 00:29:47;;;;;;;13.03;7.50;;;6.60;70.10;;;;;;4888544;29;20226;-90
2021/03/23 00:32:15;;;;;;;13.97;7.60;;;6.70;70.20;;;;;;4932832;28;20207;-90
2021/03/23 00:34:44;;;;;;;14.37;7.77;;;6.70;70.20;;;;;;4928058;29;20238;-90
2021/03/23 00:37:14;;;;;;;16.27;8.20;;;6.60;69.50;;;;;;4959998;28;20197;-90
2021/03/23 00:39:53;;;;;;;12.13;7.20;;;8.10;71.40;;;;;;4947657;28;20233;-89
2021/03/23 00:42:33;;;;;;;13.03;7.40;;;6.70;70.20;;;;;;4909438;28;20236;-90
2021/03/23 00:45:25;;;;;;;12.27;7.23;;;6.60;70.10;;;;;;4944543;29;20225;-91
2021/03/23 00:48:05;;;;;;;13.03;6.83;;;6.70;70.30;;;;;;4913837;29;20206;-90
2021/03/23 00:50:47;;;;;;;14.87;7.50;;;6.60;69.50;;;;;;4881809;28;20234;-91
2021/03/23 00:53:17;;;;;;;12.50;7.43;;;6.60;69.90;;;;;;4942747;29;20187;-91
2021/03/23 00:55:50;;;;;;;13.93;7.97;;;6.60;70.50;;;;;;4943138;29;20233;-90
2021/03/23 00:58:28;;;;;;;15.50;7.60;;;6.60;70.80;;;;;;4908044;29;20284;-90
2021/03/23 01:00:59;;;;;;;13.13;8.27;;;;;;;;;;4931400;29;20600;-91
2021/03/23 01:03:31;;;;;;;15.50;8.93;;;6.50;71.00;;;;;;4911937;28;20237;-90
2021/03/23 01:06:13;;;;;;;15.80;7.27;;;6.50;70.80;;;;;;4918650;29;20213;-91
2021/03/23 01:08:53;;;;;;;12.60;7.13;;;6.50;71.40;;;;;;4862352;29;20226;-91
2021/03/23 01:12:06;;;;;;;13.20;7.47;;;6.60;70.90;;;;;;4968587;29;20202;-90
2021/03/23 01:14:36;;;;;;;12.07;6.90;;;6.60;71.30;;;;;;4901091;29;20228;-91
2021/03/23 01:17:10;;;;;;;12.30;6.67;;;6.60;70.10;;;;;;4888704;29;20223;-91
2021/03/23 01:19:40;;;;;;;15.03;7.47;;;6.60;69.60;;;;;;4939956;28;20217;-91
2021/03/23 01:22:07;;;;;;;11.13;6.60;;;6.60;70.20;;;;;;4893937;29;20729;-90
2021/03/23 01:24:38;;;;;;;15.70;7.90;;;6.50;70.30;;;;;;4917222;28;20257;-91
2021/03/23 01:27:13;;;;;;;11.53;6.93;;;6.50;70.00;;;;;;4943915;29;20187;-90
2021/03/23 01:29:52;;;;;;;13.13;7.10;;;6.50;70.60;;;;;;4919200;29;20647;-90
2021/03/23 01:32:27;;;;;;;13.03;7.70;;;;;;;;;;4913373;29;20241;-91
2021/03/23 01:34:56;;;;;;;15.03;7.30;;;6.60;69.60;;;;;;4971824;28;20233;-91
2021/03/23 01:37:34;;;;;;;14.17;8.50;;;6.60;70.10;;;;;;4914666;29;20202;-90
2021/03/23 01:40:11;;;;;;;9.87;6.17;;;6.50;70.00;;;;;;4965599;28;20194;-90
2021/03/23 01:42:53;;;;;;;13.17;7.40;;;6.50;70.20;;;;;;4954337;28;20221;-90
2021/03/23 01:45:41;;;;;;;15.00;7.77;;;6.50;70.00;;;;;;4959442;28;20189;-90
2021/03/23 01:48:34;;;;;;;13.00;7.07;;;6.50;69.90;;;;;;4954034;28;20219;-90
2021/03/23 01:51:09;;;;;;;11.77;6.77;;;6.50;69.90;;;;;;4951398;29;20242;-90
2021/03/23 01:54:02;;;;;;;15.17;8.20;;;6.50;69.50;;;;;;4923241;29;20233;-90
2021/03/23 01:56:59;;;;;;;9.50;5.97;;;6.40;69.40;;;;;;4937240;29;20214;-89
2021/03/23 01:59:59;;;;;;;12.57;7.03;;;6.70;69.60;;;;;;4960323;28;20187;-90
2021/03/23 02:02:31;;;;;;;10.10;6.37;;;6.60;69.50;;;;;;4961341;29;20190;-91
2021/03/23 02:05:00;;;;;;;13.90;6.83;;;6.70;70.20;;;;;;4944384;29;20184;-90
2021/03/23 02:07:33;;;;;;;13.17;7.07;;;6.70;68.90;;;;;;4936289;29;20238;-90
2021/03/23 02:10:15;;;;;;;10.70;6.57;;;6.70;69.00;;;;;;4931871;28;20238;-90
2021/03/23 02:12:54;;;;;;;15.20;7.13;;;6.70;69.50;;;;;;4935914;29;20222;-90
2021/03/23 02:15:28;;;;;;;12.13;7.20;;;6.70;69.40;;;;;;4962806;28;20270;-90
2021/03/23 02:18:12;;;;;;;12.13;7.97;;;6.70;69.30;;;;;;4959123;29;20666;-90
2021/03/23 02:21:20;;;;;;;13.00;6.93;;;6.70;70.20;;;;;;4907167;29;20241;-90
2021/03/23 02:23:54;;;;;;;13.83;7.17;;;6.70;69.70;;;;;;4838926;29;20312;-90
2021/03/23 02:26:28;;;;;;;16.73;7.63;;;6.60;70.10;;;;;;4831867;29;20233;-90
2021/03/23 02:29:21;;;;;;;11.97;6.63;;;6.60;70.10;;;;;;4859050;29;20277;-90
2021/03/23 02:31:52;;;;;;;11.23;6.23;;;6.60;70.10;;;;;;4853757;29;20209;-90
2021/03/23 02:34:23;;;;;;;9.43;6.90;;;6.70;69.90;;;;;;4865385;29;20292;-90
2021/03/23 02:36:53;;;;;;;12.17;7.07;;;6.70;69.50;;;;;;4869218;29;20237;-90
2021/03/23 02:39:27;;;;;;;11.67;7.33;;;6.70;69.00;;;;;;4870702;29;20189;-90
2021/03/23 02:42:01;;;;;;;15.97;8.47;;;6.60;69.50;;;;;;4866212;29;20208;-90
2021/03/23 02:44:48;;;;;;;9.87;6.60;;;6.60;70.10;;;;;;4869811;29;20201;-90
2021/03/23 02:47:39;;;;;;;11.93;6.80;;;6.60;70.10;;;;;;4819930;29;20214;-90
2021/03/23 02:50:06;;;;;;;13.20;8.27;;;6.60;70.10;;;;;;4809121;29;20337;-89
2021/03/23 02:52:32;;;;;;;13.63;7.30;;;6.50;70.00;;;;;;4833344;29;20218;-90
2021/03/23 02:55:02;;;;;;;13.57;7.20;;;6.50;70.00;;;;;;4819372;29;20372;-90
2021/03/23 02:57:30;;;;;;;12.63;7.67;;;;;;;;;;4814943;29;20234;-90
2021/03/23 02:59:59;;;;;;;15.80;8.10;;;6.50;69.50;;;;;;4838858;29;20222;-90
2021/03/23 03:02:28;;;;;;;13.07;7.47;;;;;;;;;;4851695;29;20777;-90
2021/03/23 03:05:00;;;;;;;12.63;7.77;;;6.50;69.50;;;;;;4820517;29;20270;-89
2021/03/23 03:07:30;;;;;;;13.37;7.67;;;6.40;69.40;;;;;;4845822;29;20386;-90
2021/03/23 03:10:03;;;;;;;11.47;6.73;;;6.50;70.00;;;;;;4917007;29;20204;-90
2021/03/23 03:12:34;;;;;;;13.40;7.27;;;6.40;69.90;;;;;;4902966;29;20248;-90
2021/03/23 03:15:12;;;;;;;13.73;8.17;;;6.50;70.00;;;;;;4906391;29;20251;-90
2021/03/23 03:18:00;;;;;;;12.70;7.97;;;6.50;70.00;;;;;;4911193;29;20239;-90
2021/03/23 03:20:30;;;;;;;14.33;8.10;;;7.30;70.70;;;;;;4893137;29;20265;-90
2021/03/23 03:22:59;;;;;;;13.60;6.87;;;;;;;;;;4880371;29;20195;-90
2021/03/23 03:25:41;;;;;;;11.33;7.20;;;6.50;69.50;;;;;;4912470;29;20242;-90
2021/03/23 03:28:28;;;;;;;14.63;8.30;;;6.50;70.00;;;;;;4915823;29;20240;-90
2021/03/23 03:30:54;;;;;;;14.13;7.03;;;;;;;;;;4912402;29;20223;-89
2021/03/23 03:33:23;;;;;;;13.80;7.50;;;6.40;69.40;;;;;;4902721;28;20258;-90
2021/03/23 03:35:52;;;;;;;17.40;8.27;;;6.50;70.00;;;;;;4937641;29;20206;-89
2021/03/23 03:38:25;;;;;;;15.07;8.03;;;6.50;70.50;;;;;;4915361;29;20246;-90
2021/03/23 03:40:57;;;;;;;12.57;7.43;;;6.60;70.10;;;;;;4914166;29;20274;-90
2021/03/23 03:43:31;;;;;;;13.33;8.43;;;6.40;69.40;;;;;;4947029;28;20292;-90
2021/03/23 03:45:59;;;;;;;11.90;7.33;;;6.40;69.90;;;;;;4939647;28;20608;-89
2021/03/23 03:48:30;;;;;;;15.63;8.53;;;6.40;69.90;;;;;;4925906;28;20216;-90
2021/03/23 03:50:59;;;;;;;14.23;7.63;;;6.40;69.40;;;;;;4945216;29;20205;-90
2021/03/23 03:53:36;;;;;;;15.97;9.50;;;6.40;69.40;;;;;;4961488;28;20283;-89
2021/03/23 03:56:06;;;;;;;11.40;6.83;;;6.40;69.90;;;;;;4913712;29;20249;-90
2021/03/23 03:58:32;;;;;;;12.83;8.23;;;6.40;70.50;;;;;;4948578;28;20233;-90
2021/03/23 04:01:00;;;;;;;14.33;7.70;;;6.40;69.10;;;;;;4945895;29;20194;-90
2021/03/23 04:03:30;;;;;;;17.90;8.10;;;6.40;69.40;;;;;;4923620;29;20246;-90
2021/03/23 04:06:04;;;;;;;15.97;9.00;;;6.40;69.90;;;;;;4961542;28;20199;-90
2021/03/23 04:08:38;;;;;;;12.27;6.73;;;6.40;69.90;;;;;;4948761;28;20253;-90
2021/03/23 04:11:07;;;;;;;13.60;7.20;;;6.40;69.90;;;;;;4920151;29;20199;-90
2021/03/23 04:13:40;;;;;;;11.70;7.77;;;6.40;69.90;;;;;;4867608;29;20231;-90
2021/03/23 04:16:10;;;;;;;11.57;6.93;;;;;;;;;;4887862;29;20246;-90
2021/03/23 04:18:36;;;;;;;14.97;7.53;;;;;;;;;;4898860;29;20203;-90
2021/03/23 04:21:05;;;;;;;16.60;8.47;;;6.40;69.40;;;;;;4888697;29;20238;-90
2021/03/23 04:23:40;;;;;;;13.97;8.70;;;6.40;69.90;;;;;;4910305;29;20198;-90
2021/03/23 04:26:13;;;;;;;16.53;8.43;;;6.70;69.90;;;;;;4905925;29;20245;-89
2021/03/23 04:28:45;;;;;;;16.67;9.00;;;6.40;69.20;;;;;;4905541;29;20208;-90
2021/03/23 04:31:42;;;;;;;12.90;8.00;;;6.40;68.80;;;;;;4889941;29;20235;-89
2021/03/23 04:34:09;;;;;;;15.57;7.17;;;6.40;68.60;;;;;;4918366;29;20318;-90
2021/03/23 04:36:50;;;;;;;14.87;7.30;;;6.40;68.70;;;;;;4909436;29;20207;-90
2021/03/23 04:39:18;;;;;;;13.07;7.27;;;6.40;68.50;;;;;;4910003;29;20203;-90
2021/03/23 04:41:53;;;;;;;18.50;7.13;;;6.40;68.20;;;;;;4867352;29;20254;-90
2021/03/23 04:44:30;;;;;;;16.53;7.87;;;6.40;67.20;;;;;;4872235;29;20808;-90
2021/03/23 04:47:16;;;;;;;12.43;6.83;;;;;;;;;;4927713;29;20746;-90
2021/03/23 04:49:47;;;;;;;15.80;8.67;;;6.50;66.40;;;;;;4894704;29;20291;-89
2021/03/23 04:52:15;;;;;;;11.93;7.37;;;6.40;67.30;;;;;;4873025;29;21232;-89
2021/03/23 04:54:44;;;;;;;11.70;7.40;;;;;;;;;;4919502;29;20265;-89
2021/03/23 04:57:10;;;;;;;15.77;7.03;;;6.40;66.20;;;;;;4910121;29;20195;-89
2021/03/23 04:59:36;;;;;;;14.67;7.47;;;6.40;66.90;;;;;;4877176;29;20255;-89
2021/03/23 05:02:03;;;;;;;9.77;5.73;;;6.40;67.50;;;;;;4901016;29;20235;-89
2021/03/23 05:04:34;;;;;;;11.67;6.80;;;6.40;66.70;;;;;;4912600;29;20228;-89
2021/03/23 05:07:02;;;;;;;12.10;6.87;;;6.40;67.20;;;;;;4911323;29;20229;-89
2021/03/23 05:09:28;;;;;;;10.13;7.00;;;6.40;67.30;;;;;;4884687;29;20212;-89
2021/03/23 05:11:56;;;;;;;7.10;4.90;;;6.40;67.10;;;;;;4885868;29;20219;-89
2021/03/23 05:14:22;;;;;;;10.90;6.50;;;6.50;66.50;;;;;;4874905;29;20224;-89
2021/03/23 05:16:50;;;;;;;11.07;6.80;;;6.50;66.60;;;;;;4880070;29;20231;-89
2021/03/23 05:19:23;;;;;;;14.37;7.33;;;6.50;66.40;;;;;;4890120;29;20303;-90
2021/03/23 05:21:49;;;;;;;11.90;7.43;;;6.40;66.10;;;;;;4896047;29;20299;-89
2021/03/23 05:24:15;;;;;;;12.93;6.87;;;6.30;66.30;;;;;;4925815;29;20682;-89
2021/03/23 05:26:45;;;;;;;10.13;7.03;;;6.30;66.90;;;;;;4928892;29;20317;-89
2021/03/23 05:29:11;;;;;;;16.27;7.40;;;;;;;;;;4927627;29;20222;-89
2021/03/23 05:31:37;;;;;;;15.20;7.23;;;6.40;65.70;;;;;;4904348;29;20214;-89
2021/03/23 05:34:03;;;;;;;12.00;7.10;;;6.40;65.90;;;;;;4920708;29;20210;-90
2021/03/23 05:36:32;;;;;;;10.67;7.07;;;6.40;66.50;;;;;;4883773;29;20660;-89
2021/03/23 05:39:01;;;;;;;11.17;6.40;;;6.50;66.50;;;;;;4903793;29;20206;-90
2021/03/23 05:41:30;;;;;;;14.27;7.03;;;;;;;;;;4884754;29;20310;-89
2021/03/23 05:44:17;;;;;;;11.67;6.97;;;6.50;65.60;;;;;;4933058;29;20287;-89
2021/03/23 05:46:48;;;;;;;12.30;6.67;;;6.50;66.60;;;;;;4916533;28;20245;-89
2021/03/23 05:49:37;;;;;;;13.50;7.17;;;6.50;66.20;;;;;;4845001;29;20831;-89
2021/03/23 05:52:14;;;;;;;12.90;6.60;;;6.40;66.30;;;;;;4869364;29;20228;-89
2021/03/23 05:55:10;;;;;;;13.63;7.20;;;6.50;65.00;;;;;;4900648;29;20356;-91
2021/03/23 05:57:47;;;;;;;8.33;5.63;;;6.50;65.80;;;;;;4897481;29;20208;-91
2021/03/23 06:00:36;;;;;;;13.60;7.17;;;6.50;65.60;;;;;;4905561;29;20599;-90
2021/03/23 06:03:20;;;;;;;11.47;6.60;;;6.50;65.20;;;;;;4903448;29;20227;-91
2021/03/23 06:05:58;;;;;;;9.63;6.00;;;6.50;65.80;;;;;;4886495;29;20235;-90
2021/03/23 06:08:37;;;;;;;14.13;6.50;;;6.50;65.80;;;;;;4892528;29;20231;-90
2021/03/23 06:11:47;;;;;;;11.63;6.77;;;6.60;65.40;;;;;;4873881;29;20231;-90
2021/03/23 06:14:51;;;;;;;15.57;6.90;;;6.50;66.20;;;;;;4839135;29;20234;-91
2021/03/23 06:18:21;;;;;;;11.40;6.83;;;6.60;67.00;;;;;;4833681;29;20222;-90
2021/03/23 06:21:17;;;;;;;11.63;6.33;;;6.60;66.00;;;;;;4795193;29;20222;-89
2021/03/23 06:24:35;;;;;;;13.87;7.80;;;6.60;66.30;;;;;;4851803;29;20285;-91
2021/03/23 06:27:38;;;;;;;14.37;7.20;;;6.60;66.20;;;;;;4710535;30;20265;-87
2021/03/23 06:30:07;;;;;;;11.07;6.40;;;6.60;65.80;;;;;;4720032;30;20222;-87
2021/03/23 06:32:42;;;;;;;12.93;7.23;;;6.70;65.30;;;;;;4744071;30;20715;-85
2021/03/23 06:35:31;;;;;;;14.30;7.67;;;6.60;64.50;;;;;;4716429;30;20269;-91
2021/03/23 06:37:58;;;;;;;10.27;6.10;;;6.60;64.50;;;;;;4704846;30;20212;-90
2021/03/23 06:40:31;;;;;;;12.63;6.57;;;6.60;65.40;;;;;;4721752;30;20215;-90
2021/03/23 06:43:16;;;;;;;10.30;6.70;;;6.60;66.40;;;;;;4727168;30;20829;-90
2021/03/23 06:46:16;;;;;;;13.50;7.17;;;6.60;65.40;;;;;;4695202;30;20227;-90
2021/03/23 06:51:35;;;;;;;14.03;8.33;;;6.70;64.30;;;;;;4960353;28;20233;-69
2021/03/23 06:54:19;;;;;;;12.87;7.57;;;6.70;65.00;;;;;;4953865;28;20236;-69
2021/03/23 06:56:45;;;;;;;14.43;7.37;;;6.70;64.60;;;;;;4934391;29;20297;-69
2021/03/23 06:59:19;;;;;;;14.60;7.90;;;6.70;64.70;;;;;;4951238;28;20312;-69
2021/03/23 07:01:48;;;;;;;14.10;8.17;;;6.70;64.90;;;;;;4943042;28;20696;-70
2021/03/23 07:04:29;;;;;;;16.10;8.90;;;6.70;64.80;;;;;;4947522;28;20551;-69
2021/03/23 07:07:15;;;;;;;13.87;7.80;;;6.80;64.60;;;;;;4944325;28;20227;-69
2021/03/23 07:09:53;;;;;;;14.30;7.03;;;6.90;64.10;;;;;;4943633;28;20245;-70
2021/03/23 07:12:36;;;;;;;18.30;8.63;;;6.80;63.90;;;;;;4947237;28;20521;-69
2021/03/23 07:15:11;;;;;;;16.40;9.97;;;6.90;64.30;;;;;;4949334;28;20269;-66
2021/03/23 07:17:45;;;;;;;16.80;9.70;;;7.00;62.70;;;;;;4946343;28;20303;-67
2021/03/23 07:20:28;;;;;;;11.67;7.77;;;6.90;62.40;;;;;;4944161;28;20328;-67
2021/03/23 07:22:55;;;;;;;18.77;8.47;;;7.00;61.90;;;;;;4942958;28;20231;-68
2021/03/23 07:25:42;;;;;;;16.00;7.70;;;7.10;61.90;;;;;;4945539;28;20239;-68
2021/03/23 07:28:17;;;;;;;16.93;8.73;;;7.10;61.70;;;;;;4945381;28;20244;-67
2021/03/23 07:30:48;;;;;;;15.10;9.10;;;7.10;61.20;;;;;;4941225;28;20320;-68
2021/03/23 07:33:19;;;;;;;16.57;8.43;;;7.20;61.10;;;;;;4947804;28;20186;-67
2021/03/23 07:35:49;;;;;;;19.17;8.73;;;5.40;58.80;;;;;;4943326;28;20642;-68
2021/03/23 07:38:41;;;;;;;13.50;7.83;;;7.10;61.20;;;;;;4932441;29;20241;-68
2021/03/23 07:41:21;;;;;;;16.03;8.57;;;7.10;60.90;;;;;;4938630;28;20221;-66
2021/03/23 07:43:57;;;;;;;17.37;8.00;;;7.10;60.10;;;;;;4940730;28;20231;-68
2021/03/23 07:46:40;;;;;;;14.83;7.70;;;7.10;60.40;;;;;;4945424;28;20229;-67
2021/03/23 07:49:24;;;;;;;15.07;8.47;;;7.20;59.90;;;;;;4946400;28;20730;-66
2021/03/23 07:51:59;;;;;;;17.30;9.17;;;7.20;59.80;;;;;;4948284;28;20575;-66
2021/03/23 07:54:34;;;;;;;15.30;9.47;;;7.20;59.70;;;;;;4949425;28;20733;-69
2021/03/23 07:57:18;;;;;;;15.13;8.57;;;7.20;58.80;;;;;;4945999;28;20290;-68
2021/03/23 07:59:55;;;;;;;15.93;9.50;;;7.20;59.80;;;;;;4946313;28;20308;-66
2021/03/23 08:02:39;;;;;;;16.10;8.47;;;7.30;58.90;;;;;;4945396;28;20220;-66
2021/03/23 08:05:42;;;;;;;18.33;8.73;;;7.40;58.20;;;;;;4950362;28;20225;-68
2021/03/23 08:08:14;;;;;;;15.10;8.97;;;7.30;58.80;;;;;;4947115;28;20628;-67
2021/03/23 08:10:58;;;;;;;15.63;8.30;;;7.30;58.80;;;;;;4946558;28;20555;-66
2021/03/23 08:13:42;;;;;;;15.23;8.63;;;7.30;57.90;;;;;;4948485;28;20229;-68
2021/03/23 08:16:15;;;;;;;15.93;9.27;;;7.30;58.30;;;;;;4949923;28;20254;-68
2021/03/23 08:19:28;;;;;;;18.60;8.10;;;7.40;58.80;;;;;;4946786;28;20591;-67
2021/03/23 08:22:26;;;;;;;10.33;6.33;;;7.40;58.90;;;;;;4931160;28;20249;-68
2021/03/23 08:25:13;;;;;;;11.10;7.80;;;7.60;56.80;;;;;;4947978;28;20260;-69
2021/03/23 08:27:52;;;;;;;14.97;8.13;;;7.50;57.00;;;;;;4947136;28;20262;-67
2021/03/23 08:30:36;;;;;;;14.17;8.63;;;7.50;57.40;;;;;;4932750;28;20194;-68
2021/03/23 08:33:23;;;;;;;19.20;9.23;;;7.50;56.50;;;;;;4943489;28;20204;-68
2021/03/23 08:35:55;;;;;;;12.10;8.20;;;7.50;56.00;;;;;;4949485;28;20532;-69
2021/03/23 08:38:41;;;;;;;16.53;9.07;;;7.40;56.60;;;;;;4938088;28;20335;-70
2021/03/23 08:41:13;;;;;;;14.77;8.47;;;7.40;56.60;;;;;;4953861;28;20225;-68
2021/03/23 08:43:43;;;;;;;11.20;6.70;;;7.60;56.50;;;;;;4950013;28;20229;-66
2021/03/23 08:46:34;;;;;;;15.70;9.20;;;7.60;55.60;;;;;;4940083;28;20326;-67
2021/03/23 08:49:05;;;;;;;15.80;9.47;;;7.60;55.90;;;;;;4944195;28;20222;-66
2021/03/23 08:51:32;;;;;;;15.47;9.00;;;7.60;55.70;;;;;;4945683;28;20288;-66
2021/03/23 08:54:00;;;;;;;15.53;8.70;;;7.60;54.50;;;;;;4946045;28;20241;-66
2021/03/23 08:56:41;;;;;;;16.67;9.40;;;7.60;54.10;;;;;;4941626;28;20229;-67
2021/03/23 08:59:35;;;;;;;16.60;9.40;;;7.70;55.10;;;;;;4942262;28;20271;-66
2021/03/23 09:02:21;;;;;;;15.13;9.67;;;7.60;54.80;;;;;;4941821;28;20308;-66
2021/03/23 09:04:50;;;;;;;17.00;9.53;;;7.60;54.00;;;;;;4949473;28;20360;-67
2021/03/23 09:07:15;;;;;;;15.00;9.23;;;7.70;54.90;;;;;;4945607;28;20546;-67
2021/03/23 09:09:50;;;;;;;12.60;7.20;;;7.80;54.80;;;;;;4946811;28;20229;-67
2021/03/23 09:12:37;;;;;;;13.10;8.00;;;7.90;54.10;;;;;;4946327;28;20269;-67
2021/03/23 09:15:21;;;;;;;10.87;6.93;;;7.90;54.10;;;;;;4941463;28;20253;-67
2021/03/23 09:18:02;;;;;;;13.43;8.30;;;7.80;54.00;;;;;;4949913;29;20225;-67
2021/03/23 09:20:48;;;;;;;13.77;8.10;;;7.70;54.00;;;;;;4929311;29;20229;-67
2021/03/23 09:23:24;;;;;;;14.97;9.30;;;7.80;54.10;;;;;;4925098;28;20281;-67
2021/03/23 09:25:58;;;;;;;16.67;8.87;;;8.00;53.50;;;;;;4947507;28;20228;-67
2021/03/23 09:28:34;;;;;;;9.80;6.57;;;8.20;52.90;;;;;;4926434;28;20232;-67
2021/03/23 09:31:19;;;;;;;15.47;9.53;;;8.20;51.90;;;;;;4941869;28;20221;-67
2021/03/23 09:33:51;;;;;;;16.80;8.83;;;8.00;52.20;;;;;;4951397;28;20324;-68
2021/03/23 09:36:23;;;;;;;12.60;7.57;;;8.10;52.20;;;;;;4951185;28;20221;-68
2021/03/23 09:38:54;;;;;;;13.23;8.53;;;8.10;51.70;;;;;;4952995;28;20276;-68
2021/03/23 09:41:23;;;;;;;13.57;8.60;;;8.30;52.00;;;;;;4946339;28;20219;-68
2021/03/23 09:43:53;;;;;;;15.23;9.30;;;8.40;51.00;;;;;;4932001;28;20299;-68
2021/03/23 09:46:25;;;;;;;14.30;9.10;;;8.50;50.80;;;;;;4946847;28;20241;-68
2021/03/23 09:49:13;;;;;;;8.63;6.43;;;8.60;50.60;;;;;;4932461;29;20240;-67
2021/03/23 09:52:06;;;;;;;7.33;5.57;;;8.60;49.20;;;;;;4945484;28;20567;-67
2021/03/23 09:54:39;;;;;;;12.30;7.43;;;;;;;;;;4923501;28;20194;-67
2021/03/23 09:57:17;;;;;;;11.97;7.80;;;8.30;49.90;;;;;;4947029;28;20201;-67
2021/03/23 09:59:45;;;;;;;13.23;8.97;;;8.40;50.50;;;;;;4928646;28;20216;-67
2021/03/23 10:02:32;;;;;;;13.33;7.43;;;8.50;50.40;;;;;;4947702;28;20225;-67
2021/03/23 10:05:21;;;;;;;11.70;8.00;;;8.40;49.70;;;;;;4942560;28;20740;-69
2021/03/23 10:07:50;;;;;;;16.87;9.93;;;8.50;49.90;;;;;;4930425;28;20239;-68
2021/03/23 10:10:21;;;;;;;12.17;7.60;;;8.40;49.30;;;;;;4944215;28;20248;-68
2021/03/23 10:12:47;;;;;;;14.97;8.27;;;8.50;49.70;;;;;;4943244;28;20225;-68
2021/03/23 10:15:32;;;;;;;8.63;6.73;;;8.50;49.60;;;;;;4943542;28;20669;-67
2021/03/23 10:18:23;;;;;;;9.07;5.90;;;8.50;49.20;;;;;;4942960;28;20234;-67
2021/03/23 10:21:11;;;;;;;13.43;9.30;;;8.60;49.50;;;;;;4942831;28;20214;-67
2021/03/23 10:23:57;;;;;;;12.70;8.17;;;8.60;50.00;;;;;;4923310;28;20249;-68
2021/03/23 10:26:33;;;;;;;17.63;8.93;;;8.70;50.40;;;;;;4944374;28;20635;-67
2021/03/23 10:29:14;;;;;;;13.10;7.87;;;8.90;49.60;;;;;;4947930;28;20225;-68
2021/03/23 10:31:50;;;;;;;13.70;8.90;;;9.00;49.10;;;;;;4949379;28;20285;-67
2021/03/23 10:34:26;;;;;;;16.20;8.23;;;9.00;48.60;;;;;;4947992;28;20248;-67
2021/03/23 10:37:01;;;;;;;12.27;7.97;;;8.90;48.90;;;;;;4951154;28;20321;-67
2021/03/23 10:39:42;;;;;;;13.90;8.63;;;8.80;49.30;;;;;;4950887;28;20194;-67
2021/03/23 10:42:17;;;;;;;14.60;8.60;;;8.90;49.70;;;;;;4944341;28;20287;-69
2021/03/23 10:44:43;;;;;;;15.47;8.77;;;9.00;49.40;;;;;;4945451;28;20303;-66
2021/03/23 10:47:31;;;;;;;14.97;9.20;;;9.10;49.30;;;;;;4926381;29;20280;-66
2021/03/23 10:50:19;;;;;;;16.70;9.07;;;9.10;48.90;;;;;;4925597;28;649144;-66
2021/03/23 10:52:45;;;;;;;14.90;8.43;;;9.10;48.60;;;;;;4929793;28;20299;-66
2021/03/23 10:55:43;;;;;;;13.40;9.30;;;9.00;47.70;;;;;;4944052;28;20659;-67
2021/03/23 10:58:33;;;;;;;13.90;8.63;;;9.00;48.50;;;;;;4925701;29;20343;-66
2021/03/23 11:01:10;;;;;;;14.63;8.13;;;8.90;48.90;;;;;;4932309;28;20272;-66
2021/03/23 11:03:40;;;;;;;9.13;4.87;;;8.80;49.00;;;;;;4920732;28;20224;-67
2021/03/23 11:06:05;;;;;;;14.20;8.50;;;8.60;49.10;;;;;;4940373;28;20320;-67
2021/03/23 11:08:31;;;;;;;14.10;7.70;;;8.60;49.40;;;;;;4944750;28;20222;-67
2021/03/23 11:10:59;;;;;;;10.97;8.00;;;8.70;49.20;;;;;;4941222;28;20365;-67
2021/03/23 11:13:25;;;;;;;13.73;7.77;;;8.60;49.10;;;;;;4942378;28;20225;-66
2021/03/23 11:15:53;;;;;;;15.37;8.33;;;8.70;49.30;;;;;;4936906;28;20546;-67
2021/03/23 11:18:29;;;;;;;16.20;7.67;;;8.80;49.20;;;;;;4955013;28;20235;-67
2021/03/23 11:20:56;;;;;;;9.93;7.03;;;8.80;49.30;;;;;;4948057;28;20644;-65
2021/03/23 11:23:34;;;;;;;17.00;9.20;;;8.70;49.00;;;;;;4943741;28;20268;-68
2021/03/23 11:26:01;;;;;;;12.53;8.00;;;8.90;48.90;;;;;;4946304;28;20820;-65
2021/03/23 11:28:29;;;;;;;14.87;8.53;;;9.00;49.00;;;;;;4964371;28;20235;-68
2021/03/23 11:30:56;;;;;;;10.63;7.43;;;9.00;49.20;;;;;;4963435;28;20273;-67
2021/03/23 11:33:22;;;;;;;13.43;8.60;;;9.10;49.50;;;;;;4965002;28;20196;-66
2021/03/23 11:35:49;;;;;;;12.73;8.10;;;9.00;49.60;;;;;;4953130;28;20206;-67
2021/03/23 11:38:15;;;;;;;13.23;8.10;;;9.10;49.70;;;;;;4956587;28;20286;-65
2021/03/23 11:40:41;;;;;;;10.60;7.20;;;9.10;49.50;;;;;;4968592;28;20256;-67
2021/03/23 11:43:21;;;;;;;11.60;7.43;;;9.20;48.80;;;;;;4965099;28;20251;-67
2021/03/23 11:45:47;;;;;;;13.40;8.03;;;9.20;48.80;;;;;;4946120;28;20773;-67
2021/03/23 11:48:17;;;;;;;13.80;7.77;;;9.30;49.00;;;;;;4969021;28;20661;-67
2021/03/23 11:50:47;;;;;;;10.40;7.00;;;9.20;48.50;;;;;;4960077;28;20361;-66
2021/03/23 11:53:13;;;;;;;13.23;7.57;;;9.10;49.30;;;;;;4957009;28;20221;-67
2021/03/23 11:55:43;;;;;;;14.17;8.20;;;9.10;49.80;;;;;;4963166;28;20654;-67
2021/03/23 11:58:09;;;;;;;11.17;7.57;;;9.10;50.60;;;;;;4952374;28;20307;-67
2021/03/23 12:00:35;;;;;;;14.90;8.17;;;9.10;50.50;;;;;;4952590;28;20248;-68
2021/03/23 12:03:04;;;;;;;10.43;6.93;;;9.20;50.10;;;;;;4936883;28;20196;-68
2021/03/23 12:05:31;;;;;;;11.20;7.27;;;9.10;49.70;;;;;;4961164;28;20319;-68
2021/03/23 12:08:15;;;;;;;12.87;7.40;;;9.30;50.10;;;;;;4956381;28;20424;-68
2021/03/23 12:10:47;;;;;;;12.40;7.27;;;9.40;49.30;;;;;;4954044;28;20519;-67
2021/03/23 12:13:40;;;;;;;14.03;8.87;;;9.70;49.20;;;;;;4958107;28;20236;-67
2021/03/23 12:16:21;;;;;;;13.53;7.63;;;10.10;46.30;;;;;;4951196;28;20263;-67
2021/03/23 12:19:12;;;;;;;13.97;7.87;;;10.20;46.40;;;;;;4937765;28;20325;-68
2021/03/23 12:21:39;;;;;;;9.37;4.97;;;10.30;46.50;;;;;;4959447;28;20992;-68
2021/03/23 12:24:05;;;;;;;8.40;5.20;;;10.60;45.90;;;;;;4946617;28;20201;-68
2021/03/23 12:26:31;;;;;;;11.43;6.47;;;10.50;45.10;;;;;;4964744;28;20240;-67
2021/03/23 12:28:58;;;;;;;11.23;7.73;;;10.40;45.90;;;;;;4961865;28;20272;-68
2021/03/23 12:31:24;;;;;;;10.83;7.40;;;10.50;46.60;;;;;;4943565;28;20267;-68
2021/03/23 12:33:49;;;;;;;12.63;7.07;;;10.60;45.10;;;;;;4955058;28;20226;-67
2021/03/23 12:36:16;;;;;;;10.07;6.43;;;10.70;45.70;;;;;;4937997;28;20244;-68
2021/03/23 12:38:46;;;;;;;12.77;6.80;;;10.90;45.80;;;;;;4959416;28;20213;-68
2021/03/23 12:41:18;;;;;;;11.13;6.53;;;11.30;47.40;;;;;;4965753;28;20706;-68
2021/03/23 12:43:48;;;;;;;9.53;5.40;;;11.50;43.80;;;;;;4963347;28;20251;-68
2021/03/23 12:46:14;;;;;;;11.53;6.63;;;11.70;42.70;;;;;;4959433;28;20336;-68
2021/03/23 12:48:40;;;;;;;10.17;6.00;;;12.10;43.70;;;;;;4950721;28;20715;-68
2021/03/23 12:51:07;;;;;;;9.50;7.17;;;12.30;42.00;;;;;;4952786;28;20205;-68
2021/03/23 12:53:33;;;;;;;8.33;5.63;;;12.40;40.10;;;;;;4948964;28;20244;-67
2021/03/23 12:55:59;;;;;;;10.97;6.60;;;12.30;40.40;;;;;;4967841;28;20242;-68
2021/03/23 12:58:30;;;;;;;11.63;7.07;;;12.00;41.10;;;;;;4969053;28;20273;-67
2021/03/23 13:00:56;;;;;;;8.90;6.20;;;12.00;42.10;;;;;;4971562;28;20681;-67
2021/03/23 13:03:22;;;;;;;10.93;6.53;;;12.00;42.10;;;;;;4967943;28;20186;-68
2021/03/23 13:05:51;;;;;;;10.93;6.47;;;11.70;42.20;;;;;;4971684;28;20250;-68
2021/03/23 13:08:28;;;;;;;11.93;6.33;;;11.60;42.70;;;;;;4960231;28;20236;-68
2021/03/23 13:11:05;;;;;;;8.20;6.53;;;11.60;43.20;;;;;;4949821;28;20297;-68
2021/03/23 13:13:34;;;;;;;10.20;6.43;;;11.80;42.90;;;;;;4958960;28;20650;-68
2021/03/23 13:16:02;;;;;;;7.97;5.90;;;11.80;43.20;;;;;;4958978;28;20333;-68
2021/03/23 13:18:30;;;;;;;11.73;6.70;;;12.00;42.70;;;;;;4958559;28;20676;-68
2021/03/23 13:21:03;;;;;;;8.00;6.33;;;11.70;41.50;;;;;;4940640;28;20663;-67
2021/03/23 13:23:59;;;;;;;8.27;6.00;;;11.60;43.00;;;;;;4944413;28;20237;-67
2021/03/23 13:26:29;;;;;;;10.63;6.43;;;11.60;42.30;;;;;;4940369;28;20219;-67
2021/03/23 13:28:57;;;;;;;9.23;5.33;;;11.60;43.20;;;;;;4942209;28;20234;-68
2021/03/23 13:31:31;;;;;;;12.17;8.73;;;11.50;42.90;;;;;;4957625;28;20696;-68
2021/03/23 13:33:57;;;;;;;9.63;5.73;;;11.60;42.20;;;;;;4955964;28;20306;-68
2021/03/23 13:36:55;;;;;;;8.57;6.07;;;11.60;42.40;;;;;;4939022;28;20296;-68
2021/03/23 13:39:25;;;;;;;9.73;5.70;;;11.60;42.40;;;;;;4955810;28;20279;-67